sensor_id;sensor_type;location;lat;lon;timestamp;P1;durP1;ratioP1;P2;durP2;ratioP2
5898;SDS011;2975;50.956;6.962;2022-08-01T00:00:39;3.00;;;2.30;;
5898;SDS011;2975;50.956;6.962;2022-08-01T00:03:05;3.67;;;1.20;;
5898;SDS011;2975;50.956;6.962;2022-08-01T00:05:31;1.73;;;1.30;;
5898;SDS011;2975;50.956;6.962;2022-08-01T00:07:56;1.27;;;1.07;;
5898;SDS011;2975;50.956;6.962;2022-08-01T00:10:22;2.28;;;1.23;;
5898;SDS011;2975;50.956;6.962;2022-08-01T00:12:48;2.03;;;1.17;;
5898;SDS011;2975;50.956;6.962;2022-08-01T00:15:14;1.90;;;1.17;;
5898;SDS011;2975;50.956;6.962;2022-08-01T00:17:41;1.58;;;1.10;;
5898;SDS011;2975;50.956;6.962;2022-08-01T00:20:09;2.92;;;1.55;;
5898;SDS011;2975;50.956;6.962;2022-08-01T00:22:36;1.95;;;1.27;;
5898;SDS011;2975;50.956;6.962;2022-08-01T00:25:02;2.23;;;1.23;;
5898;SDS011;2975;50.956;6.962;2022-08-01T00:27:28;1.60;;;1.50;;
5898;SDS011;2975;50.956;6.962;2022-08-01T00:29:54;2.78;;;1.33;;
5898;SDS011;2975;50.956;6.962;2022-08-01T00:32:19;1.33;;;1.23;;
5898;SDS011;2975;50.956;6.962;2022-08-01T00:34:45;1.48;;;1.35;;
5898;SDS011;2975;50.956;6.962;2022-08-01T00:37:11;1.60;;;1.20;;
5898;SDS011;2975;50.956;6.962;2022-08-01T00:39:36;2.83;;;1.60;;
5898;SDS011;2975;50.956;6.962;2022-08-01T00:42:05;1.77;;;1.15;;
5898;SDS011;2975;50.956;6.962;2022-08-01T00:44:32;3.97;;;1.43;;
5898;SDS011;2975;50.956;6.962;2022-08-01T00:46:58;1.50;;;1.37;;
5898;SDS011;2975;50.956;6.962;2022-08-01T00:49:24;2.20;;;1.60;;
5898;SDS011;2975;50.956;6.962;2022-08-01T00:51:49;1.70;;;1.58;;
5898;SDS011;2975;50.956;6.962;2022-08-01T00:54:15;3.22;;;1.50;;
5898;SDS011;2975;50.956;6.962;2022-08-01T00:56:41;2.17;;;1.65;;
5898;SDS011;2975;50.956;6.962;2022-08-01T00:59:07;2.15;;;1.92;;
5898;SDS011;2975;50.956;6.962;2022-08-01T01:01:33;1.80;;;1.70;;
5898;SDS011;2975;50.956;6.962;2022-08-01T01:03:59;2.53;;;2.03;;
5898;SDS011;2975;50.956;6.962;2022-08-01T01:09:17;2.53;;;1.67;;
5898;SDS011;2975;50.956;6.962;2022-08-01T01:11:49;2.20;;;2.00;;
5898;SDS011;2975;50.956;6.962;2022-08-01T01:14:33;4.87;;;2.43;;
5898;SDS011;2975;50.956;6.962;2022-08-01T01:17:11;2.58;;;1.63;;
5898;SDS011;2975;50.956;6.962;2022-08-01T01:19:41;1.80;;;1.70;;
5898;SDS011;2975;50.956;6.962;2022-08-01T01:30:03;3.73;;;2.23;;
5898;SDS011;2975;50.956;6.962;2022-08-01T01:34:59;3.13;;;2.13;;
5898;SDS011;2975;50.956;6.962;2022-08-01T01:37:29;2.13;;;1.93;;
5898;SDS011;2975;50.956;6.962;2022-08-01T01:39:58;4.17;;;2.60;;
5898;SDS011;2975;50.956;6.962;2022-08-01T01:42:25;4.40;;;2.33;;
5898;SDS011;2975;50.956;6.962;2022-08-01T01:44:52;5.57;;;3.10;;
5898;SDS011;2975;50.956;6.962;2022-08-01T01:47:20;2.90;;;2.17;;
5898;SDS011;2975;50.956;6.962;2022-08-01T01:49:47;5.40;;;2.60;;
5898;SDS011;2975;50.956;6.962;2022-08-01T01:52:15;4.28;;;2.25;;
5898;SDS011;2975;50.956;6.962;2022-08-01T01:54:44;4.37;;;2.33;;
5898;SDS011;2975;50.956;6.962;2022-08-01T01:57:13;4.17;;;2.23;;
5898;SDS011;2975;50.956;6.962;2022-08-01T01:59:40;2.53;;;2.33;;
5898;SDS011;2975;50.956;6.962;2022-08-01T02:02:07;3.33;;;2.07;;
5898;SDS011;2975;50.956;6.962;2022-08-01T02:04:37;3.17;;;2.10;;
5898;SDS011;2975;50.956;6.962;2022-08-01T02:07:07;3.77;;;2.10;;
5898;SDS011;2975;50.956;6.962;2022-08-01T02:09:34;2.50;;;1.98;;
5898;SDS011;2975;50.956;6.962;2022-08-01T02:12:02;3.87;;;2.07;;
5898;SDS011;2975;50.956;6.962;2022-08-01T02:14:29;3.40;;;1.93;;
5898;SDS011;2975;50.956;6.962;2022-08-01T02:16:57;2.17;;;1.67;;
5898;SDS011;2975;50.956;6.962;2022-08-01T02:19:24;2.37;;;1.70;;
5898;SDS011;2975;50.956;6.962;2022-08-01T02:21:57;2.47;;;1.90;;
5898;SDS011;2975;50.956;6.962;2022-08-01T02:24:54;1.97;;;1.80;;
5898;SDS011;2975;50.956;6.962;2022-08-01T02:27:24;3.33;;;1.97;;
5898;SDS011;2975;50.956;6.962;2022-08-01T02:32:34;2.10;;;1.90;;
5898;SDS011;2975;50.956;6.962;2022-08-01T02:35:04;3.77;;;2.03;;
5898;SDS011;2975;50.956;6.962;2022-08-01T02:37:35;2.73;;;1.70;;
5898;SDS011;2975;50.956;6.962;2022-08-01T02:40:03;2.73;;;1.90;;
5898;SDS011;2975;50.956;6.962;2022-08-01T02:42:30;2.60;;;2.27;;
5898;SDS011;2975;50.956;6.962;2022-08-01T02:44:59;2.58;;;1.98;;
5898;SDS011;2975;50.956;6.962;2022-08-01T02:47:28;5.03;;;2.20;;
5898;SDS011;2975;50.956;6.962;2022-08-01T02:49:55;3.80;;;2.63;;
5898;SDS011;2975;50.956;6.962;2022-08-01T02:52:21;3.63;;;2.40;;
5898;SDS011;2975;50.956;6.962;2022-08-01T02:54:51;2.10;;;1.90;;
5898;SDS011;2975;50.956;6.962;2022-08-01T02:57:20;3.97;;;2.47;;
5898;SDS011;2975;50.956;6.962;2022-08-01T02:59:46;2.80;;;2.20;;
5898;SDS011;2975;50.956;6.962;2022-08-01T03:02:12;3.67;;;2.63;;
5898;SDS011;2975;50.956;6.962;2022-08-01T03:04:40;3.93;;;2.20;;
5898;SDS011;2975;50.956;6.962;2022-08-01T03:07:07;4.87;;;2.30;;
5898;SDS011;2975;50.956;6.962;2022-08-01T03:09:39;6.03;;;2.50;;
5898;SDS011;2975;50.956;6.962;2022-08-01T03:12:10;3.23;;;2.50;;
5898;SDS011;2975;50.956;6.962;2022-08-01T03:14:39;3.37;;;2.43;;
5898;SDS011;2975;50.956;6.962;2022-08-01T03:17:06;6.23;;;3.13;;
5898;SDS011;2975;50.956;6.962;2022-08-01T03:19:33;6.13;;;2.40;;
5898;SDS011;2975;50.956;6.962;2022-08-01T03:22:00;7.40;;;2.80;;
5898;SDS011;2975;50.956;6.962;2022-08-01T03:24:31;3.93;;;2.53;;
5898;SDS011;2975;50.956;6.962;2022-08-01T03:26:58;3.90;;;2.40;;
5898;SDS011;2975;50.956;6.962;2022-08-01T03:29:25;3.93;;;2.07;;
5898;SDS011;2975;50.956;6.962;2022-08-01T03:31:52;13.23;;;2.97;;
5898;SDS011;2975;50.956;6.962;2022-08-01T03:34:18;2.47;;;2.17;;
5898;SDS011;2975;50.956;6.962;2022-08-01T03:36:49;3.10;;;2.40;;
5898;SDS011;2975;50.956;6.962;2022-08-01T03:39:30;4.60;;;2.50;;
5898;SDS011;2975;50.956;6.962;2022-08-01T03:42:00;3.90;;;3.10;;
5898;SDS011;2975;50.956;6.962;2022-08-01T03:44:31;3.67;;;2.40;;
5898;SDS011;2975;50.956;6.962;2022-08-01T03:47:02;4.83;;;2.60;;
5898;SDS011;2975;50.956;6.962;2022-08-01T03:49:32;5.40;;;2.83;;
5898;SDS011;2975;50.956;6.962;2022-08-01T03:52:03;3.50;;;2.37;;
5898;SDS011;2975;50.956;6.962;2022-08-01T03:54:32;3.53;;;2.57;;
5898;SDS011;2975;50.956;6.962;2022-08-01T03:57:00;3.73;;;2.60;;
5898;SDS011;2975;50.956;6.962;2022-08-01T03:59:27;3.50;;;3.10;;
5898;SDS011;2975;50.956;6.962;2022-08-01T04:01:54;4.97;;;2.80;;
5898;SDS011;2975;50.956;6.962;2022-08-01T04:04:21;4.70;;;3.10;;
5898;SDS011;2975;50.956;6.962;2022-08-01T04:06:47;4.67;;;3.10;;
5898;SDS011;2975;50.956;6.962;2022-08-01T04:09:16;5.90;;;2.90;;
5898;SDS011;2975;50.956;6.962;2022-08-01T04:11:42;3.57;;;2.70;;
5898;SDS011;2975;50.956;6.962;2022-08-01T04:14:08;3.17;;;2.83;;
5898;SDS011;2975;50.956;6.962;2022-08-01T04:16:33;4.73;;;3.10;;
5898;SDS011;2975;50.956;6.962;2022-08-01T04:18:59;4.13;;;2.80;;
5898;SDS011;2975;50.956;6.962;2022-08-01T04:21:26;3.97;;;3.20;;
5898;SDS011;2975;50.956;6.962;2022-08-01T04:23:53;5.20;;;3.10;;
5898;SDS011;2975;50.956;6.962;2022-08-01T04:26:24;6.60;;;3.73;;
5898;SDS011;2975;50.956;6.962;2022-08-01T04:28:52;6.27;;;3.70;;
5898;SDS011;2975;50.956;6.962;2022-08-01T04:31:19;5.37;;;4.00;;
5898;SDS011;2975;50.956;6.962;2022-08-01T04:33:48;6.07;;;3.83;;
5898;SDS011;2975;50.956;6.962;2022-08-01T04:36:16;4.63;;;4.10;;
5898;SDS011;2975;50.956;6.962;2022-08-01T04:38:45;5.73;;;3.60;;
5898;SDS011;2975;50.956;6.962;2022-08-01T04:41:13;5.67;;;3.73;;
5898;SDS011;2975;50.956;6.962;2022-08-01T04:43:40;6.23;;;3.90;;
5898;SDS011;2975;50.956;6.962;2022-08-01T04:46:07;7.63;;;3.60;;
5898;SDS011;2975;50.956;6.962;2022-08-01T04:48:34;5.50;;;4.70;;
5898;SDS011;2975;50.956;6.962;2022-08-01T04:51:02;7.43;;;4.60;;
5898;SDS011;2975;50.956;6.962;2022-08-01T04:53:28;9.17;;;4.90;;
5898;SDS011;2975;50.956;6.962;2022-08-01T04:55:57;7.30;;;4.97;;
5898;SDS011;2975;50.956;6.962;2022-08-01T04:58:23;6.17;;;4.20;;
5898;SDS011;2975;50.956;6.962;2022-08-01T05:00:48;8.43;;;5.00;;
5898;SDS011;2975;50.956;6.962;2022-08-01T05:03:14;7.77;;;4.83;;
5898;SDS011;2975;50.956;6.962;2022-08-01T05:05:40;5.13;;;4.57;;
5898;SDS011;2975;50.956;6.962;2022-08-01T05:08:05;7.63;;;4.90;;
5898;SDS011;2975;50.956;6.962;2022-08-01T05:10:31;6.80;;;5.20;;
5898;SDS011;2975;50.956;6.962;2022-08-01T05:12:57;10.73;;;5.65;;
5898;SDS011;2975;50.956;6.962;2022-08-01T05:15:22;7.77;;;5.37;;
5898;SDS011;2975;50.956;6.962;2022-08-01T05:17:48;5.97;;;5.10;;
5898;SDS011;2975;50.956;6.962;2022-08-01T05:20:14;7.37;;;5.37;;
5898;SDS011;2975;50.956;6.962;2022-08-01T05:22:39;8.47;;;5.80;;
5898;SDS011;2975;50.956;6.962;2022-08-01T05:25:05;9.37;;;6.10;;
5898;SDS011;2975;50.956;6.962;2022-08-01T05:27:32;11.23;;;6.73;;
5898;SDS011;2975;50.956;6.962;2022-08-01T05:30:03;6.40;;;5.10;;
5898;SDS011;2975;50.956;6.962;2022-08-01T05:32:29;9.77;;;6.50;;
5898;SDS011;2975;50.956;6.962;2022-08-01T05:34:56;8.30;;;5.80;;
5898;SDS011;2975;50.956;6.962;2022-08-01T05:37:22;8.47;;;6.83;;
5898;SDS011;2975;50.956;6.962;2022-08-01T05:39:47;8.53;;;7.10;;
5898;SDS011;2975;50.956;6.962;2022-08-01T05:42:13;13.57;;;7.83;;
5898;SDS011;2975;50.956;6.962;2022-08-01T05:44:39;10.53;;;7.33;;
5898;SDS011;2975;50.956;6.962;2022-08-01T05:47:04;10.30;;;7.10;;
5898;SDS011;2975;50.956;6.962;2022-08-01T05:49:30;12.63;;;6.82;;
5898;SDS011;2975;50.956;6.962;2022-08-01T05:51:56;9.80;;;7.33;;
5898;SDS011;2975;50.956;6.962;2022-08-01T05:54:21;9.80;;;7.23;;
5898;SDS011;2975;50.956;6.962;2022-08-01T05:56:47;11.37;;;7.70;;
5898;SDS011;2975;50.956;6.962;2022-08-01T05:59:12;16.53;;;7.70;;
5898;SDS011;2975;50.956;6.962;2022-08-01T06:01:38;12.00;;;7.60;;
5898;SDS011;2975;50.956;6.962;2022-08-01T06:04:04;11.23;;;7.87;;
5898;SDS011;2975;50.956;6.962;2022-08-01T06:06:29;10.70;;;7.40;;
5898;SDS011;2975;50.956;6.962;2022-08-01T06:08:55;9.38;;;8.32;;
5898;SDS011;2975;50.956;6.962;2022-08-01T06:11:21;11.93;;;7.53;;
5898;SDS011;2975;50.956;6.962;2022-08-01T06:13:46;10.23;;;7.40;;
5898;SDS011;2975;50.956;6.962;2022-08-01T06:16:12;10.77;;;6.90;;
5898;SDS011;2975;50.956;6.962;2022-08-01T06:18:37;9.05;;;7.30;;
5898;SDS011;2975;50.956;6.962;2022-08-01T06:21:03;11.20;;;8.63;;
5898;SDS011;2975;50.956;6.962;2022-08-01T06:23:29;12.30;;;8.57;;
5898;SDS011;2975;50.956;6.962;2022-08-01T06:25:54;9.90;;;7.35;;
5898;SDS011;2975;50.956;6.962;2022-08-01T06:28:20;11.05;;;7.32;;
5898;SDS011;2975;50.956;6.962;2022-08-01T06:30:46;10.23;;;7.10;;
5898;SDS011;2975;50.956;6.962;2022-08-01T06:33:12;8.30;;;7.03;;
5898;SDS011;2975;50.956;6.962;2022-08-01T06:35:38;9.90;;;6.72;;
5898;SDS011;2975;50.956;6.962;2022-08-01T06:38:03;10.00;;;6.85;;
5898;SDS011;2975;50.956;6.962;2022-08-01T06:40:29;10.23;;;6.75;;
5898;SDS011;2975;50.956;6.962;2022-08-01T06:42:55;7.55;;;6.25;;
5898;SDS011;2975;50.956;6.962;2022-08-01T06:45:20;9.52;;;6.57;;
5898;SDS011;2975;50.956;6.962;2022-08-01T06:47:50;9.25;;;5.65;;
5898;SDS011;2975;50.956;6.962;2022-08-01T06:50:16;8.07;;;6.47;;
5898;SDS011;2975;50.956;6.962;2022-08-01T06:52:42;10.88;;;6.40;;
5898;SDS011;2975;50.956;6.962;2022-08-01T06:55:08;9.38;;;7.28;;
5898;SDS011;2975;50.956;6.962;2022-08-01T06:57:34;9.00;;;6.75;;
5898;SDS011;2975;50.956;6.962;2022-08-01T07:00:06;9.10;;;6.40;;
5898;SDS011;2975;50.956;6.962;2022-08-01T07:02:35;7.95;;;6.28;;
5898;SDS011;2975;50.956;6.962;2022-08-01T07:05:01;7.93;;;6.32;;
5898;SDS011;2975;50.956;6.962;2022-08-01T07:07:29;9.55;;;7.05;;
5898;SDS011;2975;50.956;6.962;2022-08-01T07:09:54;7.97;;;6.57;;
5898;SDS011;2975;50.956;6.962;2022-08-01T07:12:20;10.27;;;7.38;;
5898;SDS011;2975;50.956;6.962;2022-08-01T07:14:46;8.00;;;6.75;;
5898;SDS011;2975;50.956;6.962;2022-08-01T07:17:11;9.23;;;6.50;;
5898;SDS011;2975;50.956;6.962;2022-08-01T07:19:37;9.80;;;7.03;;
5898;SDS011;2975;50.956;6.962;2022-08-01T07:22:02;9.38;;;7.45;;
5898;SDS011;2975;50.956;6.962;2022-08-01T07:24:28;10.77;;;7.00;;
5898;SDS011;2975;50.956;6.962;2022-08-01T07:26:54;8.27;;;6.40;;
5898;SDS011;2975;50.956;6.962;2022-08-01T07:29:23;9.90;;;7.90;;
5898;SDS011;2975;50.956;6.962;2022-08-01T07:31:50;9.30;;;7.68;;
5898;SDS011;2975;50.956;6.962;2022-08-01T07:34:17;11.63;;;7.35;;
5898;SDS011;2975;50.956;6.962;2022-08-01T07:36:43;8.52;;;7.20;;
5898;SDS011;2975;50.956;6.962;2022-08-01T07:39:09;11.10;;;7.40;;
5898;SDS011;2975;50.956;6.962;2022-08-01T07:41:35;8.27;;;6.70;;
5898;SDS011;2975;50.956;6.962;2022-08-01T07:44:00;6.88;;;5.57;;
5898;SDS011;2975;50.956;6.962;2022-08-01T07:46:26;7.28;;;6.35;;
5898;SDS011;2975;50.956;6.962;2022-08-01T07:48:51;11.25;;;6.53;;
5898;SDS011;2975;50.956;6.962;2022-08-01T07:51:17;8.77;;;6.88;;
5898;SDS011;2975;50.956;6.962;2022-08-01T07:53:43;6.78;;;5.43;;
5898;SDS011;2975;50.956;6.962;2022-08-01T07:56:08;7.22;;;6.20;;
5898;SDS011;2975;50.956;6.962;2022-08-01T07:58:34;7.85;;;5.60;;
5898;SDS011;2975;50.956;6.962;2022-08-01T08:01:00;7.03;;;5.85;;
5898;SDS011;2975;50.956;6.962;2022-08-01T08:03:26;9.63;;;6.20;;
5898;SDS011;2975;50.956;6.962;2022-08-01T08:05:51;7.15;;;5.80;;
5898;SDS011;2975;50.956;6.962;2022-08-01T08:08:17;10.65;;;5.63;;
5898;SDS011;2975;50.956;6.962;2022-08-01T08:10:43;7.85;;;5.68;;
5898;SDS011;2975;50.956;6.962;2022-08-01T08:13:09;11.13;;;6.22;;
5898;SDS011;2975;50.956;6.962;2022-08-01T08:15:34;10.52;;;6.07;;
5898;SDS011;2975;50.956;6.962;2022-08-01T08:18:00;6.05;;;5.43;;
5898;SDS011;2975;50.956;6.962;2022-08-01T08:20:27;5.85;;;5.28;;
5898;SDS011;2975;50.956;6.962;2022-08-01T08:22:54;8.52;;;5.75;;
5898;SDS011;2975;50.956;6.962;2022-08-01T08:25:20;6.50;;;5.40;;
5898;SDS011;2975;50.956;6.962;2022-08-01T08:27:46;7.40;;;5.35;;
5898;SDS011;2975;50.956;6.962;2022-08-01T08:30:13;6.25;;;4.68;;
5898;SDS011;2975;50.956;6.962;2022-08-01T08:32:39;6.60;;;5.38;;
5898;SDS011;2975;50.956;6.962;2022-08-01T08:35:05;8.70;;;5.07;;
5898;SDS011;2975;50.956;6.962;2022-08-01T08:37:32;5.18;;;4.38;;
5898;SDS011;2975;50.956;6.962;2022-08-01T08:40:05;5.82;;;4.10;;
5898;SDS011;2975;50.956;6.962;2022-08-01T08:42:31;4.78;;;4.38;;
5898;SDS011;2975;50.956;6.962;2022-08-01T08:44:57;5.28;;;4.43;;
5898;SDS011;2975;50.956;6.962;2022-08-01T08:47:23;10.10;;;5.00;;
5898;SDS011;2975;50.956;6.962;2022-08-01T08:49:51;5.75;;;5.05;;
5898;SDS011;2975;50.956;6.962;2022-08-01T08:52:21;4.93;;;4.43;;
5898;SDS011;2975;50.956;6.962;2022-08-01T08:54:48;5.65;;;4.90;;
5898;SDS011;2975;50.956;6.962;2022-08-01T08:57:15;8.32;;;4.70;;
5898;SDS011;2975;50.956;6.962;2022-08-01T08:59:43;4.55;;;4.00;;
5898;SDS011;2975;50.956;6.962;2022-08-01T09:02:09;5.28;;;4.75;;
5898;SDS011;2975;50.956;6.962;2022-08-01T09:04:36;6.13;;;4.75;;
5898;SDS011;2975;50.956;6.962;2022-08-01T09:07:04;6.05;;;4.78;;
5898;SDS011;2975;50.956;6.962;2022-08-01T09:09:30;7.47;;;4.78;;
5898;SDS011;2975;50.956;6.962;2022-08-01T09:11:56;6.32;;;4.45;;
5898;SDS011;2975;50.956;6.962;2022-08-01T09:14:22;6.63;;;4.50;;
5898;SDS011;2975;50.956;6.962;2022-08-01T09:17:01;4.65;;;4.22;;
5898;SDS011;2975;50.956;6.962;2022-08-01T09:19:38;4.97;;;4.25;;
5898;SDS011;2975;50.956;6.962;2022-08-01T09:22:05;6.10;;;5.10;;
5898;SDS011;2975;50.956;6.962;2022-08-01T09:24:32;6.68;;;4.80;;
5898;SDS011;2975;50.956;6.962;2022-08-01T09:26:59;5.78;;;5.20;;
5898;SDS011;2975;50.956;6.962;2022-08-01T09:29:27;7.28;;;4.88;;
5898;SDS011;2975;50.956;6.962;2022-08-01T09:31:56;6.05;;;4.65;;
5898;SDS011;2975;50.956;6.962;2022-08-01T09:34:28;6.68;;;5.00;;
5898;SDS011;2975;50.956;6.962;2022-08-01T09:36:56;5.38;;;4.82;;
5898;SDS011;2975;50.956;6.962;2022-08-01T09:39:24;6.18;;;4.38;;
5898;SDS011;2975;50.956;6.962;2022-08-01T09:41:53;6.18;;;4.30;;
5898;SDS011;2975;50.956;6.962;2022-08-01T09:44:28;4.38;;;3.97;;
5898;SDS011;2975;50.956;6.962;2022-08-01T09:47:05;5.22;;;4.25;;
5898;SDS011;2975;50.956;6.962;2022-08-01T09:49:32;5.53;;;3.90;;
5898;SDS011;2975;50.956;6.962;2022-08-01T09:52:09;5.22;;;4.32;;
5898;SDS011;2975;50.956;6.962;2022-08-01T09:54:35;4.60;;;3.70;;
5898;SDS011;2975;50.956;6.962;2022-08-01T09:57:11;4.82;;;4.32;;
5898;SDS011;2975;50.956;6.962;2022-08-01T09:59:38;4.30;;;3.50;;
5898;SDS011;2975;50.956;6.962;2022-08-01T10:02:07;4.05;;;3.63;;
5898;SDS011;2975;50.956;6.962;2022-08-01T10:04:35;4.63;;;3.90;;
5898;SDS011;2975;50.956;6.962;2022-08-01T10:07:07;4.72;;;3.78;;
5898;SDS011;2975;50.956;6.962;2022-08-01T10:09:34;3.65;;;3.35;;
5898;SDS011;2975;50.956;6.962;2022-08-01T10:12:01;4.00;;;3.63;;
5898;SDS011;2975;50.956;6.962;2022-08-01T10:14:28;4.65;;;4.00;;
5898;SDS011;2975;50.956;6.962;2022-08-01T10:16:56;4.07;;;3.35;;
5898;SDS011;2975;50.956;6.962;2022-08-01T10:19:23;4.18;;;3.50;;
5898;SDS011;2975;50.956;6.962;2022-08-01T10:21:51;6.00;;;4.07;;
5898;SDS011;2975;50.956;6.962;2022-08-01T10:24:21;4.07;;;3.70;;
5898;SDS011;2975;50.956;6.962;2022-08-01T10:26:49;3.28;;;2.80;;
5898;SDS011;2975;50.956;6.962;2022-08-01T10:29:17;3.30;;;2.95;;
5898;SDS011;2975;50.956;6.962;2022-08-01T10:31:45;3.80;;;3.45;;
5898;SDS011;2975;50.956;6.962;2022-08-01T10:34:12;3.63;;;2.90;;
5898;SDS011;2975;50.956;6.962;2022-08-01T10:36:41;3.40;;;2.97;;
5898;SDS011;2975;50.956;6.962;2022-08-01T10:39:10;5.50;;;3.45;;
5898;SDS011;2975;50.956;6.962;2022-08-01T10:41:37;3.75;;;3.20;;
5898;SDS011;2975;50.956;6.962;2022-08-01T10:44:06;3.78;;;2.85;;
5898;SDS011;2975;50.956;6.962;2022-08-01T10:46:34;3.10;;;2.80;;
5898;SDS011;2975;50.956;6.962;2022-08-01T10:49:13;3.40;;;3.05;;
5898;SDS011;2975;50.956;6.962;2022-08-01T10:51:42;5.00;;;3.40;;
5898;SDS011;2975;50.956;6.962;2022-08-01T10:54:09;3.15;;;2.85;;
5898;SDS011;2975;50.956;6.962;2022-08-01T10:59:07;5.40;;;3.30;;
5898;SDS011;2975;50.956;6.962;2022-08-01T11:01:33;3.70;;;3.40;;
5898;SDS011;2975;50.956;6.962;2022-08-01T11:04:33;4.05;;;3.05;;
5898;SDS011;2975;50.956;6.962;2022-08-01T11:07:03;3.45;;;3.10;;
5898;SDS011;2975;50.956;6.962;2022-08-01T11:09:37;4.18;;;3.40;;
5898;SDS011;2975;50.956;6.962;2022-08-01T11:12:08;3.50;;;3.20;;
5898;SDS011;2975;50.956;6.962;2022-08-01T11:17:35;3.72;;;3.30;;
5898;SDS011;2975;50.956;6.962;2022-08-01T11:20:15;3.00;;;2.80;;
5898;SDS011;2975;50.956;6.962;2022-08-01T11:25:28;4.50;;;2.65;;
5898;SDS011;2975;50.956;6.962;2022-08-01T11:30:42;5.63;;;3.47;;
5898;SDS011;2975;50.956;6.962;2022-08-01T11:33:47;3.70;;;2.90;;
5898;SDS011;2975;50.956;6.962;2022-08-01T11:41:15;7.70;;;2.97;;
5898;SDS011;2975;50.956;6.962;2022-08-01T11:44:01;3.72;;;2.85;;
5898;SDS011;2975;50.956;6.962;2022-08-01T11:49:35;5.25;;;3.47;;
5898;SDS011;2975;50.956;6.962;2022-08-01T11:54:44;2.83;;;2.63;;
5898;SDS011;2975;50.956;6.962;2022-08-01T11:57:13;3.15;;;2.33;;
5898;SDS011;2975;50.956;6.962;2022-08-01T12:04:49;2.40;;;2.20;;
5898;SDS011;2975;50.956;6.962;2022-08-01T12:07:20;3.17;;;2.47;;
5898;SDS011;2975;50.956;6.962;2022-08-01T12:09:47;6.65;;;2.88;;
5898;SDS011;2975;50.956;6.962;2022-08-01T12:12:17;3.33;;;2.53;;
5898;SDS011;2975;50.956;6.962;2022-08-01T12:14:43;3.88;;;2.58;;
5898;SDS011;2975;50.956;6.962;2022-08-01T12:17:11;3.15;;;2.47;;
5898;SDS011;2975;50.956;6.962;2022-08-01T12:19:36;3.05;;;2.72;;
5898;SDS011;2975;50.956;6.962;2022-08-01T12:22:04;2.70;;;2.50;;
5898;SDS011;2975;50.956;6.962;2022-08-01T12:24:40;2.80;;;2.60;;
5898;SDS011;2975;50.956;6.962;2022-08-01T12:27:07;3.95;;;2.25;;
5898;SDS011;2975;50.956;6.962;2022-08-01T12:29:38;2.40;;;2.20;;
5898;SDS011;2975;50.956;6.962;2022-08-01T12:32:25;3.08;;;2.33;;
5898;SDS011;2975;50.956;6.962;2022-08-01T12:35:01;2.97;;;2.00;;
5898;SDS011;2975;50.956;6.962;2022-08-01T12:37:38;3.50;;;2.95;;
5898;SDS011;2975;50.956;6.962;2022-08-01T12:42:54;2.17;;;2.08;;
5898;SDS011;2975;50.956;6.962;2022-08-01T12:45:23;2.15;;;1.95;;
5898;SDS011;2975;50.956;6.962;2022-08-01T12:47:54;2.53;;;1.90;;
5898;SDS011;2975;50.956;6.962;2022-08-01T12:50:23;2.10;;;1.90;;
5898;SDS011;2975;50.956;6.962;2022-08-01T12:52:50;2.40;;;1.85;;
5898;SDS011;2975;50.956;6.962;2022-08-01T12:55:17;1.67;;;1.52;;
5898;SDS011;2975;50.956;6.962;2022-08-01T12:57:47;2.65;;;1.70;;
5898;SDS011;2975;50.956;6.962;2022-08-01T13:00:22;2.55;;;1.63;;
5898;SDS011;2975;50.956;6.962;2022-08-01T13:02:50;6.18;;;1.65;;
5898;SDS011;2975;50.956;6.962;2022-08-01T13:05:25;2.20;;;1.60;;
5898;SDS011;2975;50.956;6.962;2022-08-01T13:07:52;2.83;;;1.70;;
5898;SDS011;2975;50.956;6.962;2022-08-01T13:10:25;2.33;;;1.33;;
5898;SDS011;2975;50.956;6.962;2022-08-01T13:12:54;2.78;;;1.65;;
5898;SDS011;2975;50.956;6.962;2022-08-01T13:15:27;2.70;;;1.50;;
5898;SDS011;2975;50.956;6.962;2022-08-01T13:17:58;2.20;;;1.70;;
5898;SDS011;2975;50.956;6.962;2022-08-01T13:20:32;1.25;;;1.25;;
5898;SDS011;2975;50.956;6.962;2022-08-01T13:23:15;1.50;;;1.40;;
5898;SDS011;2975;50.956;6.962;2022-08-01T13:25:48;9.13;;;4.50;;
5898;SDS011;2975;50.956;6.962;2022-08-01T13:28:20;1.58;;;1.30;;
5898;SDS011;2975;50.956;6.962;2022-08-01T13:30:53;2.25;;;1.20;;
5898;SDS011;2975;50.956;6.962;2022-08-01T13:33:22;2.88;;;1.42;;
5898;SDS011;2975;50.956;6.962;2022-08-01T13:35:50;1.00;;;1.00;;
5898;SDS011;2975;50.956;6.962;2022-08-01T13:38:17;1.48;;;1.38;;
5898;SDS011;2975;50.956;6.962;2022-08-01T13:40:42;1.85;;;1.10;;
5898;SDS011;2975;50.956;6.962;2022-08-01T13:43:08;1.85;;;1.23;;
5898;SDS011;2975;50.956;6.962;2022-08-01T13:45:34;7.60;;;4.50;;
5898;SDS011;2975;50.956;6.962;2022-08-01T13:48:00;3.13;;;1.20;;
5898;SDS011;2975;50.956;6.962;2022-08-01T13:50:25;1.05;;;1.05;;
5898;SDS011;2975;50.956;6.962;2022-08-01T13:52:51;1.95;;;1.65;;
5898;SDS011;2975;50.956;6.962;2022-08-01T13:55:17;1.20;;;1.10;;
5898;SDS011;2975;50.956;6.962;2022-08-01T13:57:42;1.13;;;0.90;;
5898;SDS011;2975;50.956;6.962;2022-08-01T14:00:08;3.47;;;1.20;;
5898;SDS011;2975;50.956;6.962;2022-08-01T14:02:35;3.22;;;1.50;;
5898;SDS011;2975;50.956;6.962;2022-08-01T14:05:00;3.17;;;1.42;;
5898;SDS011;2975;50.956;6.962;2022-08-01T14:07:26;2.53;;;1.35;;
5898;SDS011;2975;50.956;6.962;2022-08-01T14:09:52;2.42;;;1.08;;
5898;SDS011;2975;50.956;6.962;2022-08-01T14:12:18;1.30;;;1.20;;
5898;SDS011;2975;50.956;6.962;2022-08-01T14:14:44;1.88;;;1.30;;
5898;SDS011;2975;50.956;6.962;2022-08-01T14:17:10;1.90;;;0.90;;
5898;SDS011;2975;50.956;6.962;2022-08-01T14:19:36;1.60;;;1.30;;
5898;SDS011;2975;50.956;6.962;2022-08-01T14:22:01;1.25;;;1.05;;
5898;SDS011;2975;50.956;6.962;2022-08-01T14:24:27;3.17;;;0.90;;
5898;SDS011;2975;50.956;6.962;2022-08-01T14:26:53;1.88;;;1.13;;
5898;SDS011;2975;50.956;6.962;2022-08-01T14:29:19;1.67;;;0.98;;
5898;SDS011;2975;50.956;6.962;2022-08-01T14:31:44;4.93;;;0.90;;
5898;SDS011;2975;50.956;6.962;2022-08-01T14:34:10;1.67;;;1.40;;
5898;SDS011;2975;50.956;6.962;2022-08-01T14:36:37;3.13;;;0.90;;
5898;SDS011;2975;50.956;6.962;2022-08-01T14:39:03;1.58;;;0.90;;
5898;SDS011;2975;50.956;6.962;2022-08-01T14:41:29;2.58;;;1.05;;
5898;SDS011;2975;50.956;6.962;2022-08-01T14:43:54;0.90;;;0.90;;
5898;SDS011;2975;50.956;6.962;2022-08-01T14:46:20;1.05;;;0.80;;
5898;SDS011;2975;50.956;6.962;2022-08-01T14:48:45;0.90;;;0.90;;
5898;SDS011;2975;50.956;6.962;2022-08-01T14:51:11;1.23;;;1.13;;
5898;SDS011;2975;50.956;6.962;2022-08-01T14:53:37;3.33;;;1.40;;
5898;SDS011;2975;50.956;6.962;2022-08-01T14:56:04;4.68;;;1.13;;
5898;SDS011;2975;50.956;6.962;2022-08-01T14:58:30;1.33;;;1.17;;
5898;SDS011;2975;50.956;6.962;2022-08-01T15:00:56;2.40;;;1.45;;
5898;SDS011;2975;50.956;6.962;2022-08-01T15:03:22;1.20;;;1.10;;
5898;SDS011;2975;50.956;6.962;2022-08-01T15:05:47;5.78;;;1.38;;
5898;SDS011;2975;50.956;6.962;2022-08-01T15:08:13;2.20;;;1.35;;
5898;SDS011;2975;50.956;6.962;2022-08-01T15:10:39;1.65;;;1.10;;
5898;SDS011;2975;50.956;6.962;2022-08-01T15:13:05;1.85;;;1.13;;
5898;SDS011;2975;50.956;6.962;2022-08-01T15:15:30;1.20;;;1.10;;
5898;SDS011;2975;50.956;6.962;2022-08-01T15:17:56;3.13;;;1.48;;
5898;SDS011;2975;50.956;6.962;2022-08-01T15:20:22;1.00;;;1.00;;
5898;SDS011;2975;50.956;6.962;2022-08-01T15:22:48;1.35;;;1.27;;
5898;SDS011;2975;50.956;6.962;2022-08-01T15:25:14;2.72;;;1.15;;
5898;SDS011;2975;50.956;6.962;2022-08-01T15:27:40;2.53;;;1.40;;
5898;SDS011;2975;50.956;6.962;2022-08-01T15:30:05;1.30;;;1.20;;
5898;SDS011;2975;50.956;6.962;2022-08-01T15:32:31;1.15;;;1.10;;
5898;SDS011;2975;50.956;6.962;2022-08-01T15:34:57;1.42;;;1.33;;
5898;SDS011;2975;50.956;6.962;2022-08-01T15:37:23;1.00;;;1.00;;
5898;SDS011;2975;50.956;6.962;2022-08-01T15:39:48;2.97;;;1.77;;
5898;SDS011;2975;50.956;6.962;2022-08-01T15:42:15;1.30;;;1.20;;
5898;SDS011;2975;50.956;6.962;2022-08-01T15:44:42;1.70;;;1.10;;
5898;SDS011;2975;50.956;6.962;2022-08-01T15:47:08;1.23;;;1.13;;
5898;SDS011;2975;50.956;6.962;2022-08-01T15:49:34;2.28;;;1.30;;
5898;SDS011;2975;50.956;6.962;2022-08-01T15:52:08;2.13;;;1.95;;
5898;SDS011;2975;50.956;6.962;2022-08-01T15:54:34;4.60;;;1.25;;
5898;SDS011;2975;50.956;6.962;2022-08-01T15:57:00;1.50;;;1.20;;
5898;SDS011;2975;50.956;6.962;2022-08-01T15:59:27;2.60;;;1.20;;
5898;SDS011;2975;50.956;6.962;2022-08-01T16:01:53;2.28;;;1.48;;
5898;SDS011;2975;50.956;6.962;2022-08-01T16:04:19;3.55;;;1.23;;